Time;durP1;ratioP1;P1;durP2;ratioP2;P2;SDS_P1;SDS_P2;PMS_P1;PMS_P2;Temp;Humidity;BMP_temperature;BMP_pressure;BME280_temperature;BME280_humidity;BME280_pressure;Samples;Min_cycle;Max_cycle;Signal;HPM_P1;HPM_P2
2021/05/29 00:00:46;;;;;;;5.20;4.10;;;15.90;62.40;;;;;;5009425;28;20624;-50
2021/05/29 00:03:12;;;;;;;4.37;3.60;;;15.90;63.00;;;;;;5009596;28;20995;-50
2021/05/29 00:05:39;;;;;;;4.43;4.03;;;15.90;63.20;;;;;;5008535;28;20616;-51
2021/05/29 00:08:07;;;;;;;4.30;3.90;;;15.80;63.40;;;;;;5009082;28;20687;-50
2021/05/29 00:10:34;;;;;;;5.07;4.00;;;15.80;63.80;;;;;;5009377;28;20774;-50
2021/05/29 00:13:01;;;;;;;4.40;3.63;;;15.80;64.50;;;;;;5009264;28;21200;-49
2021/05/29 00:15:28;;;;;;;3.50;3.20;;;15.80;65.20;;;;;;5009135;28;20662;-49
2021/05/29 00:17:55;;;;;;;3.37;3.07;;;15.70;65.60;;;;;;5009042;28;20729;-50
2021/05/29 00:20:21;;;;;;;4.50;4.10;;;15.70;66.10;;;;;;5009349;28;20632;-50
2021/05/29 00:22:48;;;;;;;4.53;3.90;;;15.70;66.50;;;;;;5009186;28;20623;-51
2021/05/29 00:25:15;;;;;;;4.97;4.57;;;15.70;67.10;;;;;;5011127;28;20628;-50
2021/05/29 00:27:43;;;;;;;4.50;4.07;;;15.70;67.60;;;;;;5011833;28;20676;-51
2021/05/29 00:30:11;;;;;;;4.40;4.10;;;15.70;68.20;;;;;;5012954;28;20670;-48
2021/05/29 00:32:38;;;;;;;3.57;3.37;;;15.60;68.70;;;;;;5011786;28;20691;-49
2021/05/29 00:35:05;;;;;;;4.47;4.00;;;15.60;69.30;;;;;;5012635;28;20673;-50
2021/05/29 00:37:32;;;;;;;4.57;4.10;;;15.60;69.60;;;;;;5011306;28;20733;-49
2021/05/29 00:39:59;;;;;;;4.67;4.27;;;15.60;70.00;;;;;;5012051;28;20798;-49
2021/05/29 00:42:26;;;;;;;5.20;4.43;;;15.50;70.50;;;;;;5012162;28;20663;-50
2021/05/29 00:44:54;;;;;;;4.03;3.63;;;15.50;71.10;;;;;;5012863;28;20659;-51
2021/05/29 00:47:22;;;;;;;5.87;4.77;;;15.50;71.60;;;;;;5011780;28;21256;-50
2021/05/29 00:49:49;;;;;;;4.60;4.20;;;15.40;72.30;;;;;;5012109;28;20983;-50
2021/05/29 00:52:16;;;;;;;7.43;3.80;;;15.40;72.60;;;;;;5012369;28;20699;-48
2021/05/29 00:54:42;;;;;;;3.80;3.50;;;15.40;72.90;;;;;;5015604;28;20654;-49
2021/05/29 00:57:10;;;;;;;4.70;4.40;;;15.30;72.80;;;;;;5017717;28;20683;-49
2021/05/29 00:59:37;;;;;;;5.17;4.77;;;15.30;73.00;;;;;;5012175;28;21200;-49
2021/05/29 01:02:04;;;;;;;5.10;3.67;;;15.20;73.50;;;;;;5011617;28;20628;-49
2021/05/29 01:04:31;;;;;;;4.40;4.00;;;15.20;74.00;;;;;;5011780;28;20659;-50
2021/05/29 01:06:58;;;;;;;5.07;4.57;;;15.10;74.00;;;;;;5010733;28;21235;-49
2021/05/29 01:09:25;;;;;;;5.10;4.60;;;15.10;74.30;;;;;;5011361;28;20663;-49
2021/05/29 01:11:51;;;;;;;7.47;4.10;;;15.10;74.40;;;;;;5012226;28;20687;-49
2021/05/29 01:14:18;;;;;;;4.10;3.60;;;15.10;74.30;;;;;;5012225;28;20662;-48
2021/05/29 01:16:54;;;;;;;4.07;3.77;;;15.10;74.70;;;;;;5011795;28;20655;-50
2021/05/29 01:19:22;;;;;;;3.97;3.60;;;15.10;75.00;;;;;;5012017;28;21200;-50
2021/05/29 01:21:48;;;;;;;4.63;4.20;;;15.00;75.00;;;;;;5011585;28;21308;-49
2021/05/29 01:24:17;;;;;;;5.00;4.13;;;14.90;75.20;;;;;;5025873;28;20650;-50
2021/05/29 01:26:44;;;;;;;5.33;4.07;;;14.90;75.50;;;;;;5021006;28;20863;-49
2021/05/29 01:29:11;;;;;;;5.23;4.73;;;14.80;75.30;;;;;;5011175;28;20660;-49
2021/05/29 01:31:37;;;;;;;6.43;4.30;;;14.70;75.50;;;;;;5011755;28;20683;-49
2021/05/29 01:34:04;;;;;;;4.90;4.50;;;14.70;75.90;;;;;;5011373;28;20643;-48
2021/05/29 01:36:31;;;;;;;5.40;4.60;;;14.70;76.00;;;;;;5010791;28;20660;-50
2021/05/29 01:38:58;;;;;;;4.70;4.30;;;14.70;76.50;;;;;;5010852;28;20656;-50
2021/05/29 01:41:25;;;;;;;4.03;3.57;;;14.70;76.40;;;;;;5011330;28;20628;-50
2021/05/29 01:43:52;;;;;;;4.77;4.20;;;14.70;76.50;;;;;;5011055;28;21044;-50
2021/05/29 01:46:20;;;;;;;6.20;4.97;;;14.70;76.70;;;;;;5011307;28;20662;-50
2021/05/29 01:48:48;;;;;;;3.60;3.40;;;14.60;76.70;;;;;;5010319;28;20662;-50
2021/05/29 01:51:16;;;;;;;4.50;4.10;;;14.50;77.10;;;;;;5009666;28;20754;-50
2021/05/29 01:53:43;;;;;;;3.60;3.40;;;14.50;77.70;;;;;;5010627;28;20673;-50
2021/05/29 01:56:10;;;;;;;4.03;3.60;;;14.40;78.00;;;;;;5010722;28;21197;-50
2021/05/29 01:58:38;;;;;;;4.20;3.90;;;14.40;78.70;;;;;;5010549;28;20624;-50
2021/05/29 02:01:05;;;;;;;4.63;3.87;;;14.30;79.20;;;;;;5011151;28;21057;-50
2021/05/29 02:03:31;;;;;;;5.23;4.40;;;14.30;79.40;;;;;;5011193;28;20935;-48
2021/05/29 02:05:58;;;;;;;4.40;3.80;;;14.30;79.80;;;;;;5011064;28;20660;-51
2021/05/29 02:08:25;;;;;;;4.57;4.17;;;14.20;80.30;;;;;;5011133;28;20628;-50
2021/05/29 02:10:52;;;;;;;4.40;4.10;;;14.20;80.70;;;;;;5010198;28;20643;-52
2021/05/29 02:13:23;;;;;;;5.30;4.77;;;14.20;80.40;;;;;;5011243;28;20698;-49
2021/05/29 02:15:50;;;;;;;4.00;3.60;;;14.20;80.70;;;;;;5010712;28;20662;-49
2021/05/29 02:18:17;;;;;;;5.07;4.50;;;14.20;80.80;;;;;;5011038;28;21211;-50
2021/05/29 02:20:45;;;;;;;4.57;4.17;;;14.10;81.50;;;;;;5011301;28;20674;-50
2021/05/29 02:23:13;;;;;;;3.77;3.57;;;14.10;80.80;;;;;;5009841;28;20699;-50
2021/05/29 02:25:40;;;;;;;4.10;3.63;;;14.00;81.00;;;;;;5009825;28;21039;-51
2021/05/29 02:28:07;;;;;;;4.20;3.90;;;14.00;81.30;;;;;;5011328;28;20676;-50
2021/05/29 02:30:34;;;;;;;7.40;4.67;;;13.90;81.40;;;;;;5011884;28;20703;-50
2021/05/29 02:33:02;;;;;;;4.23;3.90;;;13.80;81.50;;;;;;5012059;28;20702;-49
2021/05/29 02:35:28;;;;;;;4.23;3.87;;;13.80;82.20;;;;;;5011212;28;20660;-50
2021/05/29 02:37:55;;;;;;;5.20;4.73;;;13.80;82.50;;;;;;5011112;28;21061;-50
2021/05/29 02:40:22;;;;;;;4.87;4.03;;;13.80;82.40;;;;;;5011245;28;20619;-49
2021/05/29 02:42:48;;;;;;;6.10;4.40;;;13.70;82.20;;;;;;5010494;28;20628;-50
2021/05/29 02:45:15;;;;;;;4.93;3.83;;;13.70;82.80;;;;;;5010244;28;20677;-50
2021/05/29 02:47:42;;;;;;;4.13;3.83;;;13.70;83.40;;;;;;5009831;28;21046;-50
2021/05/29 02:50:11;;;;;;;3.70;3.40;;;13.70;83.40;;;;;;5009988;28;20670;-50
2021/05/29 02:52:38;;;;;;;5.00;3.73;;;13.70;83.20;;;;;;5010793;28;20696;-51
2021/05/29 02:55:06;;;;;;;5.07;4.00;;;13.70;83.00;;;;;;5009904;28;20642;-50
2021/05/29 02:57:32;;;;;;;4.90;4.00;;;13.60;83.20;;;;;;5009953;28;20786;-50
2021/05/29 02:59:59;;;;;;;5.00;4.37;;;13.60;83.30;;;;;;5010729;28;20989;-49
2021/05/29 03:02:26;;;;;;;4.03;3.80;;;13.50;84.00;;;;;;5010215;28;20667;-49
2021/05/29 03:04:53;;;;;;;4.63;3.97;;;13.50;84.30;;;;;;5010250;28;20685;-50
2021/05/29 03:07:20;;;;;;;3.97;3.67;;;13.60;84.60;;;;;;5011078;28;20659;-51
2021/05/29 03:09:47;;;;;;;3.77;3.50;;;13.60;84.50;;;;;;5011181;28;20656;-49
2021/05/29 03:12:14;;;;;;;5.60;4.50;;;13.60;84.30;;;;;;5010545;28;20805;-51
2021/05/29 03:14:41;;;;;;;8.90;5.40;;;13.60;84.40;;;;;;5010695;28;20720;-50
2021/05/29 03:17:08;;;;;;;7.67;6.00;;;13.60;84.50;;;;;;5010570;28;20667;-49
2021/05/29 03:19:35;;;;;;;6.57;5.90;;;13.60;84.60;;;;;;5009687;28;20655;-49
2021/05/29 03:22:01;;;;;;;6.50;4.50;;;13.60;84.80;;;;;;5008811;28;20652;-50
2021/05/29 03:24:29;;;;;;;5.00;4.60;;;13.60;86.00;;;;;;5009251;28;20731;-49
2021/05/29 03:26:56;;;;;;;4.30;3.90;;;13.60;87.10;;;;;;5008227;28;20683;-47
2021/05/29 03:29:22;;;;;;;5.30;4.37;;;13.60;87.70;;;;;;5009368;28;21202;-50
2021/05/29 03:31:49;;;;;;;4.37;3.97;;;13.70;87.90;;;;;;5008993;28;20687;-50
2021/05/29 03:34:16;;;;;;;3.60;3.30;;;13.70;87.30;;;;;;5009813;28;20642;-50
2021/05/29 03:36:43;;;;;;;4.53;4.13;;;13.60;87.20;;;;;;5009130;28;21196;-49
2021/05/29 03:39:09;;;;;;;4.10;3.80;;;13.60;86.80;;;;;;5008924;28;20636;-49
2021/05/29 03:41:37;;;;;;;5.37;3.50;;;13.60;87.20;;;;;;5009076;28;20659;-50
2021/05/29 03:44:04;;;;;;;3.90;3.60;;;13.60;87.80;;;;;;5008920;28;20664;-49
2021/05/29 03:46:31;;;;;;;4.10;3.80;;;13.60;87.80;;;;;;5009476;28;20687;-50
2021/05/29 03:48:57;;;;;;;4.10;3.80;;;13.70;87.60;;;;;;5008878;28;20990;-50
2021/05/29 03:51:24;;;;;;;3.83;3.50;;;13.70;87.30;;;;;;5008923;28;20686;-49
2021/05/29 03:53:51;;;;;;;5.03;3.87;;;13.70;87.50;;;;;;5008192;28;20874;-49
2021/05/29 03:56:18;;;;;;;4.77;4.37;;;13.70;86.80;;;;;;5009380;28;20752;-50
2021/05/29 03:58:45;;;;;;;7.03;4.27;;;13.70;86.70;;;;;;5009204;28;20700;-49
2021/05/29 04:01:12;;;;;;;4.87;4.47;;;13.60;86.70;;;;;;5012989;28;20674;-49
2021/05/29 04:03:39;;;;;;;13.83;4.90;;;13.60;86.90;;;;;;5012835;28;20671;-49
2021/05/29 04:06:05;;;;;;;4.50;3.93;;;13.60;86.90;;;;;;5012891;28;21216;-48
2021/05/29 04:08:32;;;;;;;4.20;3.80;;;13.60;87.60;;;;;;5013091;28;20656;-49
2021/05/29 04:10:59;;;;;;;3.83;3.43;;;13.60;87.80;;;;;;5013220;28;20689;-49
2021/05/29 04:13:25;;;;;;;4.33;3.53;;;13.70;87.80;;;;;;5013323;28;21072;-49
2021/05/29 04:15:53;;;;;;;4.27;3.67;;;13.70;87.70;;;;;;5013144;28;20659;-49
2021/05/29 04:18:20;;;;;;;8.70;4.13;;;13.60;86.80;;;;;;5012592;28;20786;-49
2021/05/29 04:20:46;;;;;;;5.70;4.40;;;13.60;87.00;;;;;;5013091;28;20659;-49
2021/05/29 04:23:13;;;;;;;3.40;3.20;;;13.50;86.90;;;;;;5011998;28;20632;-49
2021/05/29 04:25:40;;;;;;;4.43;4.03;;;13.50;87.00;;;;;;5012622;28;20636;-49
2021/05/29 04:28:06;;;;;;;4.13;3.60;;;13.50;87.40;;;;;;5011521;28;21024;-49
2021/05/29 04:30:34;;;;;;;6.77;4.10;;;13.50;88.50;;;;;;5012511;28;21260;-49
2021/05/29 04:33:01;;;;;;;5.53;3.60;;;13.60;87.80;;;;;;5011816;28;20687;-50
2021/05/29 04:35:28;;;;;;;3.87;3.53;;;13.60;88.00;;;;;;5011498;28;20681;-50
2021/05/29 04:37:55;;;;;;;4.97;4.57;;;13.60;88.00;;;;;;5010600;28;20762;-49
2021/05/29 04:40:22;;;;;;;4.07;3.77;;;13.60;88.20;;;;;;5012301;28;20656;-49
2021/05/29 04:42:50;;;;;;;4.13;3.83;;;13.70;88.50;;;;;;5011799;28;20651;-50
2021/05/29 04:45:16;;;;;;;4.53;4.13;;;13.70;88.80;;;;;;5012172;28;20655;-49
2021/05/29 04:47:43;;;;;;;5.90;3.73;;;13.70;88.60;;;;;;5011991;28;20643;-49
2021/05/29 04:50:11;;;;;;;5.90;4.10;;;13.80;88.50;;;;;;5012200;28;20652;-48
2021/05/29 04:52:38;;;;;;;5.63;3.77;;;13.80;88.60;;;;;;5012316;28;20703;-49
2021/05/29 04:55:06;;;;;;;5.77;4.30;;;13.80;87.90;;;;;;5012167;28;21110;-49
2021/05/29 04:57:32;;;;;;;5.37;4.97;;;13.80;87.60;;;;;;5011829;28;20745;-49
2021/05/29 04:59:59;;;;;;;3.70;3.30;;;13.70;87.30;;;;;;5011845;28;20987;-49
2021/05/29 05:02:26;;;;;;;5.30;4.10;;;13.70;87.50;;;;;;5011767;28;20709;-49
2021/05/29 05:04:52;;;;;;;4.50;4.10;;;13.70;87.30;;;;;;5012350;28;20670;-49
2021/05/29 05:07:20;;;;;;;5.10;4.33;;;13.70;87.50;;;;;;5012010;28;20666;-49
2021/05/29 05:09:47;;;;;;;4.80;3.60;;;13.70;87.20;;;;;;5011903;28;20653;-49
2021/05/29 05:12:14;;;;;;;4.63;4.23;;;13.70;87.20;;;;;;5010793;28;20696;-49
2021/05/29 05:14:40;;;;;;;4.20;3.90;;;13.70;87.20;;;;;;5011846;28;20667;-49
2021/05/29 05:17:07;;;;;;;4.20;3.87;;;13.70;87.30;;;;;;5011564;28;20686;-49
2021/05/29 05:19:34;;;;;;;3.97;3.40;;;13.80;87.40;;;;;;5011411;28;20636;-49
2021/05/29 05:22:00;;;;;;;3.37;3.07;;;13.80;87.50;;;;;;5010168;28;20671;-49
2021/05/29 05:24:28;;;;;;;6.87;3.47;;;13.80;88.00;;;;;;5011557;28;20663;-49
2021/05/29 05:26:55;;;;;;;7.70;3.43;;;13.90;87.90;;;;;;5011588;28;20679;-49
2021/05/29 05:29:21;;;;;;;3.17;2.90;;;14.00;87.90;;;;;;5021644;28;21200;-49
2021/05/29 05:31:48;;;;;;;4.00;3.67;;;14.10;87.60;;;;;;5017398;28;20632;-48
2021/05/29 05:34:15;;;;;;;3.27;3.07;;;14.20;87.10;;;;;;5025519;28;20685;-48
2021/05/29 05:36:43;;;;;;;6.00;2.80;;;14.20;87.10;;;;;;5013612;28;20679;-49
2021/05/29 05:39:10;;;;;;;3.10;2.33;;;14.30;86.60;;;;;;5012530;28;21278;-48
2021/05/29 05:41:38;;;;;;;4.53;3.37;;;14.40;86.40;;;;;;5011152;28;20713;-48
2021/05/29 05:44:05;;;;;;;4.13;2.97;;;14.40;86.20;;;;;;5011563;28;20666;-49
2021/05/29 05:46:33;;;;;;;6.80;3.73;;;14.50;86.20;;;;;;5010753;28;21036;-49
2021/05/29 05:49:00;;;;;;;3.20;2.90;;;14.60;85.60;;;;;;5010813;28;20686;-49
2021/05/29 05:51:30;;;;;;;6.03;2.90;;;14.60;85.50;;;;;;5010618;28;20660;-48
2021/05/29 05:53:57;;;;;;;3.07;2.87;;;14.70;85.50;;;;;;5011025;28;20752;-49
2021/05/29 05:56:26;;;;;;;3.07;2.70;;;14.70;85.40;;;;;;5019148;28;20812;-48
2021/05/29 05:58:55;;;;;;;3.83;3.07;;;14.80;86.30;;;;;;5013842;28;20655;-49
2021/05/29 06:01:22;;;;;;;2.63;2.43;;;14.80;84.80;;;;;;5010769;28;20655;-48
2021/05/29 06:03:49;;;;;;;3.67;2.77;;;14.90;84.40;;;;;;5010677;28;20652;-48
2021/05/29 06:06:16;;;;;;;2.63;2.40;;;14.90;83.80;;;;;;5010838;28;20718;-48
2021/05/29 06:08:42;;;;;;;3.20;3.00;;;15.00;83.70;;;;;;5010223;28;20701;-49
2021/05/29 06:11:10;;;;;;;9.60;3.73;;;15.00;83.00;;;;;;5010757;28;20666;-49
2021/05/29 06:19:12;;;;;;;3.27;3.07;;;15.10;82.70;;;;;;5012241;28;20620;-49
2021/05/29 06:21:42;;;;;;;2.83;2.63;;;15.20;82.50;;;;;;5010949;28;20631;-49
2021/05/29 06:24:09;;;;;;;2.47;2.27;;;15.30;81.70;;;;;;5010125;28;20648;-48
2021/05/29 06:26:36;;;;;;;2.67;2.43;;;15.30;81.10;;;;;;5015363;28;20650;-49
2021/05/29 06:29:04;;;;;;;2.87;2.67;;;15.30;80.90;;;;;;5023869;28;20624;-56
2021/05/29 06:31:31;;;;;;;5.57;2.70;;;15.40;81.10;;;;;;5010390;28;20709;-49
2021/05/29 06:33:58;;;;;;;2.60;2.40;;;15.50;80.90;;;;;;5011620;28;20695;-48
2021/05/29 06:36:25;;;;;;;3.00;2.70;;;15.50;80.70;;;;;;5014531;28;21032;-48
2021/05/29 06:38:52;;;;;;;2.63;2.47;;;15.60;80.60;;;;;;5019026;28;20656;-48
2021/05/29 06:41:18;;;;;;;2.30;2.07;;;15.60;80.40;;;;;;5029236;28;20673;-48
2021/05/29 06:43:45;;;;;;;3.27;2.93;;;15.60;80.10;;;;;;5030333;28;20658;-49
2021/05/29 06:46:12;;;;;;;2.97;2.47;;;15.60;79.90;;;;;;5029792;28;21195;-48
2021/05/29 06:48:39;;;;;;;3.37;3.07;;;15.70;80.20;;;;;;5027346;28;21022;-48
2021/05/29 06:51:06;;;;;;;3.13;2.60;;;15.70;80.30;;;;;;5010510;28;20624;-48
2021/05/29 06:53:36;;;;;;;2.30;2.10;;;15.80;81.00;;;;;;5013733;28;20707;-48
2021/05/29 06:58:50;;;;;;;3.47;3.17;;;16.00;79.80;;;;;;5028429;28;20926;-48
2021/05/29 07:01:17;;;;;;;1.80;1.70;;;16.10;79.50;;;;;;5021563;28;20639;-48
2021/05/29 07:03:45;;;;;;;1.70;1.60;;;16.20;78.90;;;;;;5029900;28;20631;-47
2021/05/29 07:06:12;;;;;;;2.07;1.97;;;16.20;77.70;;;;;;5012369;28;20678;-48
2021/05/29 07:08:39;;;;;;;2.33;1.90;;;16.30;76.10;;;;;;5010282;28;20652;-48
2021/05/29 07:11:06;;;;;;;2.50;2.30;;;16.30;75.60;;;;;;5009834;28;20670;-48
2021/05/29 07:13:33;;;;;;;2.30;1.90;;;16.40;75.40;;;;;;5009877;28;20726;-48
2021/05/29 07:16:00;;;;;;;2.70;2.10;;;16.40;74.50;;;;;;5009834;28;20647;-48
2021/05/29 07:18:30;;;;;;;3.50;2.20;;;16.50;74.40;;;;;;5009670;28;21039;-48
2021/05/29 07:20:58;;;;;;;2.03;1.83;;;16.60;73.70;;;;;;5008953;28;20652;-48
2021/05/29 07:23:24;;;;;;;3.17;2.00;;;16.80;72.00;;;;;;5009675;28;20636;-48
2021/05/29 07:25:51;;;;;;;1.60;1.50;;;17.00;71.40;;;;;;5009704;28;20648;-48
2021/05/29 07:28:18;;;;;;;1.80;1.70;;;17.30;71.40;;;;;;5009345;28;20682;-48
2021/05/29 07:30:46;;;;;;;3.77;2.20;;;17.50;69.80;;;;;;5009601;28;21268;-48
2021/05/29 07:33:13;;;;;;;1.73;1.63;;;17.80;68.40;;;;;;5009309;28;20688;-48
2021/05/29 07:35:41;;;;;;;1.70;1.60;;;18.00;65.30;;;;;;5012994;28;20703;-48
2021/05/29 07:38:09;;;;;;;1.73;1.53;;;18.20;62.90;;;;;;5042774;22;21171;-53
2021/05/29 07:40:37;;;;;;;1.47;1.23;;;18.40;62.60;;;;;;5034806;28;20662;-53
2021/05/29 07:43:07;;;;;;;2.10;1.47;;;18.60;62.00;;;;;;5033719;28;20615;-55
2021/05/29 07:45:34;;;;;;;1.67;1.20;;;18.70;59.60;;;;;;5023503;28;20616;-53
2021/05/29 07:48:01;;;;;;;3.63;1.57;;;18.80;58.60;;;;;;5011525;28;20686;-54
2021/05/29 07:50:28;;;;;;;1.67;1.57;;;19.00;58.30;;;;;;5013283;28;20640;-54
2021/05/29 07:52:54;;;;;;;2.03;1.83;;;19.20;58.40;;;;;;5012757;28;20680;-55
2021/05/29 07:55:22;;;;;;;1.30;1.20;;;19.40;57.10;;;;;;5013366;28;20667;-54
2021/05/29 07:57:49;;;;;;;2.30;1.07;;;19.60;56.50;;;;;;5013385;28;20705;-54
2021/05/29 08:00:22;;;;;;;1.50;1.40;;;19.80;54.90;;;;;;5013215;28;20619;-55
2021/05/29 08:02:49;;;;;;;1.87;1.73;;;19.90;53.90;;;;;;5013274;28;20643;-55
2021/05/29 08:05:21;;;;;;;1.37;1.27;;;20.10;53.40;;;;;;5020371;28;21036;-55
2021/05/29 08:07:49;;;;;;;1.47;1.37;;;20.20;53.20;;;;;;5013855;28;21214;-54
2021/05/29 08:10:22;;;;;;;1.50;1.23;;;20.40;52.20;;;;;;5013965;28;20682;-55
2021/05/29 08:12:50;;;;;;;1.50;1.40;;;20.50;51.50;;;;;;5012660;28;20687;-55
2021/05/29 08:15:17;;;;;;;1.57;1.47;;;20.60;50.40;;;;;;4999401;28;20655;-54
2021/05/29 08:17:44;;;;;;;2.43;1.83;;;20.70;50.60;;;;;;5013136;28;20695;-54
2021/05/29 08:20:13;;;;;;;2.00;1.80;;;20.80;50.10;;;;;;5015112;28;20662;-54
2021/05/29 08:22:40;;;;;;;1.70;1.60;;;21.00;50.20;;;;;;5026166;28;20629;-55
2021/05/29 08:25:11;;;;;;;1.50;1.40;;;21.20;49.10;;;;;;5015344;28;20702;-55
2021/05/29 08:27:37;;;;;;;2.30;1.57;;;21.50;48.70;;;;;;5013316;28;20698;-54
2021/05/29 08:30:10;;;;;;;1.47;1.30;;;21.60;48.10;;;;;;5014088;28;20666;-54
2021/05/29 08:32:39;;;;;;;1.20;1.10;;;21.80;46.80;;;;;;5013047;28;20635;-54
2021/05/29 08:35:07;;;;;;;1.37;1.27;;;22.00;45.80;;;;;;5013462;28;20666;-55
2021/05/29 08:37:34;;;;;;;1.87;1.57;;;22.10;45.50;;;;;;5013597;28;20707;-55
2021/05/29 08:40:01;;;;;;;2.90;2.60;;;22.20;45.40;;;;;;5013392;28;21002;-55
2021/05/29 08:42:27;;;;;;;7.70;7.00;;;22.30;44.60;;;;;;5011935;28;20627;-53
2021/05/29 08:44:58;;;;;;;2.00;1.40;;;22.30;43.70;;;;;;5013116;28;20682;-54
2021/05/29 08:47:26;;;;;;;1.33;1.13;;;22.30;43.10;;;;;;5013476;28;20682;-54
2021/05/29 08:49:53;;;;;;;1.10;1.00;;;22.10;41.70;;;;;;5030055;28;20663;-55
2021/05/29 08:52:20;;;;;;;2.30;1.53;;;21.90;41.70;;;;;;5033291;28;20662;-54
2021/05/29 08:54:47;;;;;;;3.80;1.67;;;21.80;41.70;;;;;;5025030;28;20663;-54
2021/05/29 08:57:15;;;;;;;1.43;1.33;;;21.90;42.90;;;;;;5013137;28;20698;-54
2021/05/29 08:59:42;;;;;;;1.40;1.30;;;21.90;41.80;;;;;;5013792;28;21191;-55
2021/05/29 09:02:16;;;;;;;3.23;1.30;;;22.00;41.80;;;;;;5022958;28;20765;-54
2021/05/29 09:05:07;;;;;;;1.33;1.23;;;22.00;41.40;;;;;;5006612;28;20671;-55
2021/05/29 09:07:36;;;;;;;1.80;1.27;;;21.90;41.00;;;;;;5012502;28;20999;-55
2021/05/29 09:10:22;;;;;;;1.60;1.30;;;21.90;40.80;;;;;;5031515;28;20918;-55
2021/05/29 09:13:02;;;;;;;1.40;1.30;;;21.90;41.30;;;;;;5032850;28;20651;-55
2021/05/29 09:15:41;;;;;;;1.93;1.50;;;21.90;41.20;;;;;;5023254;28;20623;-56
2021/05/29 09:18:08;;;;;;;1.20;1.10;;;21.90;41.60;;;;;;5011396;28;20663;-56
2021/05/29 09:20:36;;;;;;;2.13;1.93;;;21.90;41.30;;;;;;5013309;28;20628;-54
2021/05/29 09:23:03;;;;;;;1.40;1.10;;;22.00;41.00;;;;;;5013013;28;20656;-55
2021/05/29 09:25:33;;;;;;;1.80;1.50;;;22.20;40.90;;;;;;5012971;28;20731;-54
2021/05/29 09:28:01;;;;;;;0.83;0.83;;;22.50;40.00;;;;;;5012814;28;20676;-55
2021/05/29 09:30:35;;;;;;;3.67;3.37;;;22.80;39.60;;;;;;5013839;28;20655;-55
2021/05/29 09:33:13;;;;;;;3.93;1.60;;;23.20;38.50;;;;;;5018660;28;20619;-55
2021/05/29 09:35:53;;;;;;;1.67;1.50;;;23.50;38.00;;;;;;5019534;28;21024;-57
2021/05/29 09:38:24;;;;;;;1.33;1.23;;;24.00;38.20;;;;;;5012493;28;21293;-54
2021/05/29 09:40:52;;;;;;;3.17;1.63;;;24.40;37.60;;;;;;5012368;28;20627;-52
2021/05/29 09:43:18;;;;;;;1.90;1.60;;;24.70;36.60;;;;;;5011733;28;20655;-56
2021/05/29 09:45:45;;;;;;;1.20;1.10;;;24.80;36.10;;;;;;5012191;28;20627;-55
2021/05/29 09:48:16;;;;;;;1.60;1.30;;;24.80;36.10;;;;;;5011622;28;20708;-55
2021/05/29 09:51:00;;;;;;;2.97;1.43;;;24.70;35.60;;;;;;5013479;28;20659;-55
2021/05/29 09:56:23;;;;;;;1.60;1.30;;;24.10;36.60;;;;;;5011927;28;20997;-54
2021/05/29 09:58:51;;;;;;;2.50;1.60;;;23.80;36.60;;;;;;5011238;28;20620;-54
2021/05/29 10:01:49;;;;;;;2.47;1.40;;;23.50;36.50;;;;;;5013456;28;20666;-55
2021/05/29 10:04:17;;;;;;;1.30;1.20;;;23.20;36.50;;;;;;4972268;28;20637;-55
2021/05/29 10:06:55;;;;;;;1.97;1.13;;;23.00;37.00;;;;;;5010167;28;21024;-55
2021/05/29 10:09:31;;;;;;;3.40;1.40;;;22.80;37.10;;;;;;5016174;28;20611;-55
2021/05/29 10:12:08;;;;;;;4.30;2.03;;;22.60;37.80;;;;;;5031931;28;20623;-55
2021/05/29 10:14:35;;;;;;;3.07;1.27;;;22.40;37.80;;;;;;5019386;28;21140;-54
2021/05/29 10:17:04;;;;;;;1.80;1.10;;;22.30;38.70;;;;;;5011912;28;20672;-55
2021/05/29 10:19:31;;;;;;;2.77;1.73;;;22.30;39.30;;;;;;5012589;28;20628;-58
2021/05/29 10:22:04;;;;;;;1.70;1.60;;;22.30;38.70;;;;;;5014020;28;20714;-53
2021/05/29 10:24:33;;;;;;;3.27;1.50;;;22.40;38.40;;;;;;5013299;28;20658;-54
2021/05/29 10:27:04;;;;;;;1.63;1.53;;;22.50;38.60;;;;;;5011741;28;20759;-55
2021/05/29 10:29:31;;;;;;;1.30;1.20;;;22.60;38.10;;;;;;5011029;28;20703;-56
2021/05/29 10:32:12;;;;;;;1.30;1.20;;;22.70;37.60;;;;;;5010634;28;21172;-55
2021/05/29 10:34:57;;;;;;;1.53;1.20;;;22.70;37.80;;;;;;5009773;28;21236;-54
2021/05/29 10:37:33;;;;;;;3.00;1.30;;;22.80;37.30;;;;;;5011259;28;20668;-55
2021/05/29 10:40:22;;;;;;;1.10;1.00;;;22.80;37.20;;;;;;5011662;28;20655;-54
2021/05/29 10:43:13;;;;;;;2.43;1.10;;;22.90;37.20;;;;;;5011588;28;20632;-55
2021/05/29 10:46:13;;;;;;;1.30;1.20;;;23.10;37.00;;;;;;5011624;28;20627;-56
2021/05/29 10:48:45;;;;;;;2.80;1.50;;;23.30;37.20;;;;;;5006084;28;20627;-55
2021/05/29 10:51:12;;;;;;;1.67;1.40;;;23.40;36.80;;;;;;5010147;28;20659;-55
2021/05/29 10:53:41;;;;;;;1.37;0.83;;;23.20;36.70;;;;;;5010366;28;21236;-54
2021/05/29 10:56:30;;;;;;;1.83;1.10;;;23.00;37.60;;;;;;5010968;28;20632;-52
2021/05/29 10:59:07;;;;;;;1.20;1.10;;;22.90;37.60;;;;;;5010168;28;20624;-53
2021/05/29 11:02:05;;;;;;;1.50;1.40;;;22.90;37.70;;;;;;5010167;28;20632;-53
2021/05/29 11:04:32;;;;;;;1.93;1.33;;;23.00;37.80;;;;;;5007136;28;20694;-53
2021/05/29 11:07:23;;;;;;;1.40;1.30;;;23.20;37.50;;;;;;5010521;28;20684;-54
2021/05/29 11:09:57;;;;;;;2.53;1.53;;;23.30;37.50;;;;;;5003396;28;20686;-54
2021/05/29 11:12:51;;;;;;;1.20;1.10;;;23.30;37.10;;;;;;5011318;28;21187;-54
2021/05/29 11:15:20;;;;;;;2.57;1.43;;;23.20;37.00;;;;;;4997370;28;20676;-54
2021/05/29 11:18:10;;;;;;;1.53;1.43;;;23.20;36.60;;;;;;5009391;28;20679;-55
2021/05/29 11:21:10;;;;;;;1.63;1.53;;;23.50;36.60;;;;;;5010539;28;20651;-55
2021/05/29 11:23:38;;;;;;;1.20;0.90;;;24.40;35.70;;;;;;4969920;28;20700;-56
2021/05/29 11:26:10;;;;;;;1.30;1.13;;;25.20;35.00;;;;;;4969436;28;20665;-55
2021/05/29 11:28:37;;;;;;;1.57;1.30;;;25.90;34.10;;;;;;4989646;28;20731;-55
2021/05/29 11:31:04;;;;;;;3.33;1.50;;;26.10;32.20;;;;;;5012114;28;21274;-55
2021/05/29 11:33:31;;;;;;;1.50;1.40;;;26.20;32.10;;;;;;5012115;28;21191;-55
2021/05/29 11:36:00;;;;;;;2.60;1.10;;;26.60;31.90;;;;;;5011958;28;20694;-55
2021/05/29 11:38:30;;;;;;;1.10;1.00;;;27.10;31.50;;;;;;5011578;28;20698;-55
2021/05/29 11:41:08;;;;;;;1.00;0.90;;;27.20;30.50;;;;;;5008934;28;20994;-58
2021/05/29 11:43:41;;;;;;;1.50;1.23;;;26.90;30.00;;;;;;5010308;28;20667;-55
2021/05/29 11:46:09;;;;;;;1.90;1.40;;;26.50;30.00;;;;;;5019252;28;20622;-56
2021/05/29 11:48:37;;;;;;;1.10;1.00;;;26.30;30.70;;;;;;5031191;28;20640;-54
2021/05/29 11:51:12;;;;;;;1.33;1.23;;;26.10;31.30;;;;;;5031049;28;20654;-56
2021/05/29 11:53:44;;;;;;;1.30;1.10;;;26.20;31.50;;;;;;5031149;28;20689;-55
2021/05/29 11:56:12;;;;;;;1.77;1.37;;;26.10;31.00;;;;;;5030695;28;21048;-56
2021/05/29 11:58:52;;;;;;;2.17;1.33;;;25.90;31.30;;;;;;5030288;28;21033;-55
2021/05/29 12:01:21;;;;;;;4.30;1.30;;;25.50;30.90;;;;;;5024999;28;20717;-55
2021/05/29 12:03:52;;;;;;;1.80;1.20;;;25.30;31.40;;;;;;5011547;28;20762;-55
2021/05/29 12:06:38;;;;;;;2.47;1.60;;;25.10;31.70;;;;;;5011086;28;20659;-55
2021/05/29 12:09:16;;;;;;;2.87;1.87;;;25.00;32.30;;;;;;5011106;28;20651;-57
2021/05/29 12:11:44;;;;;;;1.70;1.60;;;24.90;32.70;;;;;;5011007;28;20630;-53
2021/05/29 12:14:13;;;;;;;2.20;1.20;;;24.80;32.70;;;;;;5010465;28;20694;-55
2021/05/29 12:16:43;;;;;;;1.93;1.13;;;24.50;32.90;;;;;;5010405;28;20651;-55
2021/05/29 12:19:26;;;;;;;1.70;1.30;;;24.50;33.20;;;;;;5010843;28;20615;-55
2021/05/29 12:21:57;;;;;;;1.10;1.00;;;24.70;32.60;;;;;;5013439;28;20657;-57
2021/05/29 12:24:24;;;;;;;1.63;1.30;;;24.80;31.90;;;;;;5014480;28;20632;-56
2021/05/29 12:26:52;;;;;;;2.70;1.40;;;24.90;30.80;;;;;;5014079;28;20702;-56
2021/05/29 12:29:20;;;;;;;1.57;1.23;;;25.10;30.30;;;;;;5014492;28;21022;-55
2021/05/29 12:31:51;;;;;;;2.53;1.20;;;25.20;30.20;;;;;;5014345;28;20632;-54
2021/05/29 12:34:22;;;;;;;2.00;1.03;;;25.30;30.10;;;;;;5014610;28;20655;-56
2021/05/29 12:36:54;;;;;;;2.07;1.10;;;25.40;30.00;;;;;;5030312;28;20662;-56
2021/05/29 12:39:21;;;;;;;1.20;1.10;;;25.70;30.20;;;;;;5013430;28;20996;-55
2021/05/29 12:41:48;;;;;;;1.83;1.30;;;26.10;29.30;;;;;;5014199;28;21210;-54
2021/05/29 12:44:15;;;;;;;1.87;1.20;;;26.50;28.70;;;;;;5013511;28;21256;-54
2021/05/29 12:46:42;;;;;;;2.90;1.20;;;26.70;28.60;;;;;;5014192;28;20643;-55
2021/05/29 12:49:11;;;;;;;2.80;1.43;;;26.80;28.70;;;;;;5011752;28;20690;-54
2021/05/29 12:51:40;;;;;;;2.77;1.17;;;26.80;28.80;;;;;;5013824;28;20623;-54
2021/05/29 12:54:07;;;;;;;1.80;0.90;;;26.90;28.60;;;;;;5013728;28;20679;-55
2021/05/29 12:56:34;;;;;;;2.33;1.60;;;26.70;28.30;;;;;;5014184;28;20819;-54
2021/05/29 12:59:01;;;;;;;1.33;1.23;;;26.40;28.60;;;;;;5032015;28;20680;-54
2021/05/29 13:01:36;;;;;;;1.63;1.53;;;26.30;28.90;;;;;;5026738;28;20658;-55
2021/05/29 13:09:40;;;;;;;1.93;1.23;;;25.80;29.30;;;;;;5033598;28;20625;-55
2021/05/29 13:12:11;;;;;;;2.33;1.30;;;25.80;29.30;;;;;;5031100;28;20677;-56
2021/05/29 13:14:38;;;;;;;1.20;0.90;;;26.20;29.20;;;;;;5013092;28;20707;-56